Portada
METAR-TAF:

METAR-TAF

Aeropuertos :

Alice Springs, Australia

latitud: 23-48S, longitud: 133-53E, altitud: 545 m

Observación

El informe se hizo hace 27 minutos, a las 05:30 UTC
Viento 13 kt del sur, variando entre este-sureste y sur
Temperatura 29°C
Humedad 22%
Presión 1014 hPa
Visibilidad 10 km o más

METAR: YBAS 170530Z AUTO 17013KT 120V180 9999 // NCD 29/05 Q1014 RF00.0/000.0

Hora: 15:27 (05:57 UTC)

Pronóstico

El informe se hizo hace 45 minutos, a las 05:12 UTC
Pronóstico válido del 17 a las 06 UTC al 18 a las 06 UTC
Viento 8 kt del sur-sureste
Visibilidad 10 km o más
sin nubes por debajo de 1500 m y sin presencia de cumulonimbus.
A partir de las 18 a las 0000 UTC
Viento 15 kt del este-sureste con ráfagas de 25 kt
Visibilidad 10 km o más
sin nubes por debajo de 1500 m y sin presencia de cumulonimbus.

TAF: YBAS 170512Z 1706/1806 15008KT CAVOK FM180000 11015G25KT CAVOK

Observaciones y pronósticos meteorológicos de más de 4000 aeropuertos (mensajes METAR y TAF).

Los puntos amarillos y rojos representan las estaciones disponibles.

Ponga el ratón en el punto deseado para ver el nombre de la estación.

Haga clic para ver las observaciones y los pronósticos meteorológicos.

Para cambiar el mapa : haga clic en los botones verdes con una cruz de color negro para hacer un zoom, en el botón verde con un guión para alejar o en las flechas verdes para mapas adyacentes.


METAR-TAF: